Time;durP1;ratioP1;P1;durP2;ratioP2;P2;SDS_P1;SDS_P2;PMS_P1;PMS_P2;Temp;Humidity;BMP_temperature;BMP_pressure;BME280_temperature;BME280_humidity;BME280_pressure;Samples;Min_cycle;Max_cycle;Signal;HPM_P1;HPM_P2
2023/08/04 00:02:05;;;;;;;16.13;5.13;;;17.20;99.90;;;16.81;89.60;100066.63;5013333;28;20590;-72
2023/08/04 00:04:39;;;;;;;10.03;4.70;;;17.20;99.90;;;16.81;89.02;100077.44;5013686;28;20188;-72
2023/08/04 00:07:12;;;;;;;8.63;4.80;;;17.20;99.90;;;16.76;88.88;100069.97;5013188;28;20243;-72
2023/08/04 00:09:45;;;;;;;11.43;4.80;;;17.10;99.90;;;16.70;89.80;100074.38;5013631;28;20187;-72
2023/08/04 00:12:18;;;;;;;12.60;5.33;;;17.10;99.90;;;16.69;88.81;100085.38;5013284;28;20184;-72
2023/08/04 00:14:53;;;;;;;14.63;5.43;;;17.00;99.90;;;16.68;89.12;100079.16;5013262;28;20562;-72
2023/08/04 00:17:28;;;;;;;9.67;4.50;;;17.10;99.90;;;16.65;89.38;100084.16;5013147;28;20250;-72
2023/08/04 00:20:02;;;;;;;8.93;4.87;;;17.10;99.90;;;16.69;89.53;100082.69;5013574;28;20192;-72
2023/08/04 00:22:36;;;;;;;9.90;4.67;;;17.10;99.90;;;16.70;89.17;100090.59;5013453;28;20217;-72
2023/08/04 00:25:11;;;;;;;15.43;5.67;;;17.10;99.90;;;16.60;89.10;100092.09;5013093;28;20641;-73
2023/08/04 00:27:44;;;;;;;10.80;4.17;;;17.00;99.90;;;16.65;88.84;100093.09;5013167;28;20630;-73
2023/08/04 00:30:18;;;;;;;8.33;4.63;;;17.00;99.90;;;16.58;88.30;100094.16;5013510;28;20214;-72
2023/08/04 00:32:51;;;;;;;15.20;5.57;;;17.00;99.90;;;16.61;87.71;100105.38;5013127;28;20634;-72
2023/08/04 00:35:25;;;;;;;11.53;4.87;;;17.00;99.90;;;16.56;88.74;100109.78;5013265;28;20638;-73
2023/08/04 00:37:58;;;;;;;9.90;4.50;;;16.90;99.90;;;16.58;88.95;100116.63;5013650;28;20227;-73
2023/08/04 00:40:32;;;;;;;12.77;4.83;;;17.00;99.90;;;16.55;88.35;100122.47;5013376;28;20231;-72
2023/08/04 00:43:05;;;;;;;8.47;4.30;;;16.90;99.90;;;16.57;87.88;100119.56;5013341;28;20270;-73
2023/08/04 00:45:40;;;;;;;8.47;4.57;;;16.90;99.90;;;16.57;87.94;100120.38;5012920;28;20665;-73
2023/08/04 00:48:14;;;;;;;13.03;4.67;;;16.90;99.90;;;16.57;88.21;100119.56;5012940;28;20192;-73
2023/08/04 00:50:48;;;;;;;11.20;4.77;;;16.90;99.90;;;16.53;87.46;100113.72;5015176;28;20191;-73
2023/08/04 00:53:23;;;;;;;13.93;4.60;;;16.90;99.90;;;16.54;87.81;100114.56;5017081;28;20284;-73
2023/08/04 00:55:57;;;;;;;14.10;4.50;;;16.90;99.90;;;16.47;87.67;100121.84;5016918;28;20255;-73
2023/08/04 00:58:33;;;;;;;11.90;5.17;;;16.80;99.90;;;16.46;88.37;100131.00;5016988;28;20222;-72
2023/08/04 01:01:06;;;;;;;12.13;4.70;;;16.80;99.90;;;16.48;87.17;100132.44;5016411;28;20726;-72
2023/08/04 01:03:41;;;;;;;14.07;4.80;;;16.90;99.90;;;16.44;86.34;100136.59;5016785;28;20210;-72
2023/08/04 01:06:32;;;;;;;9.30;4.33;;;16.80;99.90;;;16.45;87.01;100127.44;5016403;28;20767;-72
2023/08/04 01:09:10;;;;;;;7.20;4.27;;;16.80;99.90;;;16.39;86.97;100125.59;5016647;28;20290;-72
2023/08/04 01:12:01;;;;;;;12.37;4.80;;;16.80;99.90;;;16.38;86.68;100128.50;5016750;28;20271;-72
2023/08/04 01:14:38;;;;;;;10.93;4.30;;;16.80;99.90;;;16.39;87.12;100128.31;5016798;28;20215;-72
2023/08/04 01:17:27;;;;;;;11.57;4.13;;;16.80;99.90;;;16.40;86.84;100138.09;5016085;28;20266;-72
2023/08/04 01:20:03;;;;;;;12.33;4.80;;;16.80;99.90;;;16.40;87.19;100140.78;5016458;28;20194;-72
2023/08/04 01:22:37;;;;;;;10.27;4.43;;;16.80;99.90;;;16.39;87.34;100143.69;5016381;28;20211;-72
2023/08/04 01:25:13;;;;;;;12.37;5.07;;;16.80;99.90;;;16.39;86.39;100144.53;5016022;28;20194;-73
2023/08/04 01:27:53;;;;;;;10.13;4.10;;;16.80;99.90;;;16.40;87.21;100143.50;5016312;28;20275;-73
2023/08/04 01:30:30;;;;;;;12.10;4.50;;;16.80;99.90;;;16.39;87.11;100141.81;5016246;28;20192;-72
2023/08/04 01:33:03;;;;;;;10.83;4.37;;;16.70;99.90;;;16.33;86.97;100134.56;5015928;28;20549;-72
2023/08/04 01:35:37;;;;;;;12.30;4.30;;;16.70;99.90;;;16.31;87.47;100139.34;5015798;28;20779;-73
2023/08/04 01:38:10;;;;;;;11.10;4.00;;;16.70;99.90;;;16.27;86.64;100140.78;5016175;28;20196;-72
2023/08/04 01:40:43;;;;;;;11.07;4.17;;;16.70;99.90;;;16.27;86.32;100140.00;5016072;28;20286;-73
2023/08/04 01:43:17;;;;;;;14.17;4.43;;;16.60;99.90;;;16.24;86.98;100152.03;5015671;28;20216;-72
2023/08/04 01:45:50;;;;;;;11.03;3.60;;;16.60;99.90;;;16.20;86.49;100150.78;5015571;28;20594;-73
2023/08/04 01:48:23;;;;;;;9.17;4.00;;;16.60;99.90;;;16.19;86.96;100154.56;5016010;28;20199;-73
2023/08/04 01:50:57;;;;;;;9.23;3.63;;;16.50;99.90;;;16.12;87.39;100142.94;5015897;28;20196;-72
2023/08/04 01:53:30;;;;;;;9.33;4.07;;;16.50;99.90;;;16.11;86.95;100152.06;5015818;28;20279;-72
2023/08/04 01:56:03;;;;;;;11.23;3.97;;;16.50;99.90;;;16.06;87.93;100160.78;5015712;28;20318;-73
2023/08/04 01:58:37;;;;;;;9.07;3.83;;;16.40;99.90;;;16.05;88.00;100167.25;5015708;28;20283;-72
2023/08/04 02:01:10;;;;;;;17.70;4.70;;;16.40;99.90;;;16.04;87.52;100179.06;5015839;28;20202;-72
2023/08/04 02:03:43;;;;;;;11.87;4.77;;;16.40;99.90;;;15.99;87.73;100178.06;5014964;28;20302;-72
2023/08/04 02:06:17;;;;;;;10.07;4.23;;;16.40;99.90;;;15.97;88.14;100183.66;5015363;28;20326;-73
2023/08/04 02:08:50;;;;;;;12.03;4.40;;;16.30;99.90;;;15.88;88.39;100187.59;5015507;28;20202;-72
2023/08/04 02:11:23;;;;;;;12.13;4.10;;;16.20;99.90;;;15.90;88.18;100188.22;5015151;28;20283;-72
2023/08/04 02:13:56;;;;;;;12.40;4.80;;;16.20;99.90;;;15.92;88.11;100202.34;5015143;28;20196;-72
2023/08/04 02:16:30;;;;;;;11.63;4.30;;;16.20;99.90;;;15.94;88.78;100204.84;5015302;28;20255;-73
2023/08/04 02:19:08;;;;;;;10.10;4.27;;;16.30;99.90;;;15.86;88.98;100205.88;5015009;28;20680;-73
2023/08/04 02:21:42;;;;;;;10.70;4.20;;;16.20;99.90;;;15.91;88.28;100214.19;5015208;28;20261;-73
2023/08/04 02:24:16;;;;;;;9.40;4.10;;;16.30;99.90;;;15.97;88.46;100212.50;5015289;28;20270;-73
2023/08/04 02:26:50;;;;;;;6.83;4.00;;;16.30;99.90;;;15.99;88.76;100213.94;5015140;28;20231;-73
2023/08/04 02:29:23;;;;;;;9.10;4.10;;;16.30;99.90;;;16.02;87.94;100223.53;5015044;28;20697;-73
2023/08/04 02:31:56;;;;;;;9.80;4.60;;;16.40;99.90;;;16.00;87.68;100228.28;5015120;28;20227;-73
2023/08/04 02:34:30;;;;;;;17.07;5.10;;;16.40;99.90;;;15.92;88.00;100228.50;5015254;28;20227;-72
2023/08/04 02:37:03;;;;;;;14.17;5.27;;;16.30;99.90;;;15.86;88.80;100218.53;5014936;28;20294;-72
2023/08/04 02:39:39;;;;;;;19.07;5.43;;;16.20;99.90;;;15.81;89.37;100221.88;5014966;28;20568;-72
2023/08/04 02:42:13;;;;;;;18.50;5.40;;;16.20;99.90;;;15.76;89.52;100228.91;5015034;28;20246;-72
2023/08/04 02:44:46;;;;;;;14.40;5.07;;;16.10;99.90;;;15.78;90.34;100232.25;5015077;28;20191;-70
2023/08/04 02:47:19;;;;;;;11.10;4.47;;;16.10;99.90;;;15.77;89.75;100235.97;5014811;28;20231;-70
2023/08/04 02:49:53;;;;;;;15.73;4.83;;;16.10;99.90;;;15.73;89.66;100236.38;5014721;28;20196;-70
2023/08/04 02:52:25;;;;;;;16.13;4.67;;;16.10;99.90;;;15.64;89.83;100228.69;5074334;22;20252;-75
2023/08/04 02:55:00;;;;;;;13.77;4.60;;;16.00;99.90;;;15.62;90.52;100228.88;5052715;28;20221;-74
2023/08/04 02:57:34;;;;;;;12.67;4.80;;;15.90;99.90;;;15.65;91.51;100233.88;5054467;28;20240;-74
2023/08/04 03:00:07;;;;;;;15.00;5.30;;;16.00;99.90;;;15.62;90.70;100230.75;5062554;28;20187;-74
2023/08/04 03:02:39;;;;;;;10.87;4.80;;;15.90;99.90;;;15.50;91.26;100222.44;5066273;28;20234;-74
2023/08/04 03:05:12;;;;;;;14.73;4.97;;;15.90;99.90;;;15.56;90.93;100239.66;5055864;28;20190;-74
2023/08/04 03:07:44;;;;;;;16.37;5.23;;;15.90;99.90;;;15.44;91.68;100236.72;5067328;28;20190;-74
2023/08/04 03:10:17;;;;;;;14.00;5.47;;;15.80;99.90;;;15.39;92.56;100239.19;5059841;28;20229;-72
2023/08/04 03:12:49;;;;;;;17.07;5.53;;;15.80;99.90;;;15.37;92.75;100243.13;5060950;28;20264;-73
2023/08/04 03:15:22;;;;;;;17.37;5.60;;;15.80;99.90;;;15.43;92.25;100248.53;5054922;28;20301;-74
2023/08/04 03:17:55;;;;;;;21.07;5.47;;;15.80;99.90;;;15.42;92.43;100244.19;5054285;28;20194;-74
2023/08/04 03:20:29;;;;;;;18.63;5.57;;;15.80;99.90;;;15.40;91.85;100256.22;5053993;28;20198;-74
2023/08/04 03:23:01;;;;;;;20.60;6.13;;;15.80;99.90;;;15.40;92.73;100257.03;5053784;28;20328;-74
2023/08/04 03:25:35;;;;;;;16.93;5.53;;;15.80;99.90;;;15.35;92.52;100264.91;5053919;28;20245;-74
2023/08/04 03:28:07;;;;;;;20.87;6.27;;;15.70;99.90;;;15.37;92.08;100257.44;5053512;28;20602;-74
2023/08/04 03:30:39;;;;;;;21.37;6.40;;;15.80;99.90;;;15.34;92.84;100273.22;5053644;28;20245;-74
2023/08/04 03:33:11;;;;;;;21.23;6.60;;;15.70;99.90;;;15.31;93.09;100268.22;5053413;28;20321;-74
2023/08/04 03:35:43;;;;;;;19.20;6.10;;;15.70;99.90;;;15.35;92.68;100275.69;5053472;28;20248;-74
2023/08/04 03:38:15;;;;;;;17.67;5.30;;;15.70;99.90;;;15.35;92.84;100283.78;5053739;28;20285;-74
2023/08/04 03:40:48;;;;;;;15.47;5.93;;;15.80;99.90;;;15.38;93.27;100291.47;5053685;28;20214;-74
2023/08/04 03:43:20;;;;;;;12.50;5.23;;;15.80;99.90;;;15.39;92.57;100286.91;5053283;28;20233;-74
2023/08/04 03:45:52;;;;;;;15.67;5.90;;;15.80;99.90;;;15.34;92.96;100294.78;5053338;28;20567;-74
2023/08/04 03:48:24;;;;;;;15.80;5.73;;;15.70;99.90;;;15.35;93.09;100294.56;5053241;28;20719;-74
2023/08/04 03:50:53;;;;;;;11.47;4.97;;;15.80;99.90;;;15.36;93.41;100296.25;5053577;28;20192;-74
2023/08/04 03:53:25;;;;;;;14.00;5.43;;;15.70;99.90;;;15.35;92.75;100299.97;5053168;28;20316;-73
2023/08/04 03:55:59;;;;;;;13.60;5.63;;;15.70;99.90;;;15.37;93.15;100295.22;5053459;28;20641;-73
2023/08/04 03:58:31;;;;;;;13.33;5.10;;;15.70;99.90;;;15.29;93.45;100292.69;5053513;28;20277;-74
2023/08/04 04:01:03;;;;;;;15.03;5.83;;;15.70;99.90;;;15.35;92.77;100297.25;5053371;28;20187;-73
2023/08/04 04:03:35;;;;;;;11.47;5.50;;;15.80;99.90;;;15.32;93.24;100294.97;5051716;28;20230;-74
2023/08/04 04:06:07;;;;;;;14.77;5.07;;;15.80;99.90;;;15.39;92.94;100309.31;5053964;28;20213;-75
2023/08/04 04:08:39;;;;;;;14.63;4.90;;;15.80;99.90;;;15.39;92.17;100303.94;5053716;28;20197;-74
2023/08/04 04:11:12;;;;;;;11.43;4.80;;;15.80;99.90;;;15.44;92.42;100309.56;5052877;28;20203;-74
2023/08/04 04:13:45;;;;;;;11.77;4.27;;;15.80;99.90;;;15.42;92.91;100308.06;5052999;28;20222;-74
2023/08/04 04:16:17;;;;;;;14.13;5.03;;;15.80;99.90;;;15.36;92.65;100316.97;5053308;28;20281;-74
2023/08/04 04:18:49;;;;;;;12.50;5.30;;;15.80;99.90;;;15.35;93.12;100324.25;5053436;28;20216;-74
2023/08/04 04:21:21;;;;;;;10.13;4.30;;;15.80;99.90;;;15.40;91.97;100321.78;5054048;28;20256;-74
2023/08/04 04:23:53;;;;;;;13.77;4.47;;;15.80;99.90;;;15.35;92.15;100321.53;5053122;28;20230;-74
2023/08/04 04:26:26;;;;;;;16.47;4.80;;;15.70;99.90;;;15.33;93.15;100320.09;5056406;28;20194;-74
2023/08/04 04:28:58;;;;;;;16.90;4.80;;;15.70;99.90;;;15.32;93.09;100316.56;5057483;28;20225;-74
2023/08/04 04:31:30;;;;;;;12.17;4.50;;;15.70;99.90;;;15.31;93.24;100325.66;5057168;28;20255;-74
2023/08/04 04:34:01;;;;;;;15.17;5.13;;;15.70;99.90;;;15.33;93.56;100318.22;5057051;28;20272;-74
2023/08/04 04:36:33;;;;;;;18.67;4.90;;;15.70;99.90;;;15.30;92.85;100321.31;5057087;28;20190;-74
2023/08/04 04:39:06;;;;;;;12.53;4.37;;;15.70;99.90;;;15.35;92.43;100320.72;5057053;28;20277;-74
2023/08/04 04:41:39;;;;;;;17.47;5.47;;;15.80;99.90;;;15.26;93.26;100314.66;5056952;28;20186;-73
2023/08/04 04:44:11;;;;;;;16.83;4.50;;;15.70;99.90;;;15.27;93.25;100321.75;5056862;28;20645;-74
2023/08/04 04:46:43;;;;;;;12.93;4.63;;;15.70;99.90;;;15.28;93.76;100323.38;5056916;28;20214;-74
2023/08/04 04:49:16;;;;;;;17.73;4.57;;;15.70;99.90;;;15.29;93.13;100327.75;5056813;28;20190;-74
2023/08/04 04:51:50;;;;;;;16.17;4.87;;;15.70;99.90;;;15.29;93.10;100319.66;5056625;28;20191;-74
2023/08/04 04:54:22;;;;;;;18.10;5.20;;;15.80;99.90;;;15.32;93.64;100319.25;5056763;28;20190;-74
2023/08/04 04:56:55;;;;;;;16.77;5.30;;;15.80;99.90;;;15.35;92.10;100326.94;5056729;28;20202;-74
2023/08/04 04:59:27;;;;;;;16.60;5.47;;;15.80;99.90;;;15.29;92.58;100325.06;5056639;28;20281;-74
2023/08/04 05:01:59;;;;;;;17.40;6.00;;;15.70;99.90;;;15.26;93.85;100325.47;5056528;28;20198;-74
2023/08/04 05:04:31;;;;;;;19.67;5.57;;;15.70;99.90;;;15.27;93.28;100329.00;5056149;28;20210;-74
2023/08/04 05:07:03;;;;;;;14.47;4.50;;;15.70;99.90;;;15.30;93.23;100334.81;5056529;28;20187;-74
2023/08/04 05:09:35;;;;;;;13.37;4.20;;;15.70;99.90;;;15.32;92.79;100331.91;5056270;28;20652;-74
2023/08/04 05:12:10;;;;;;;10.87;4.27;;;15.70;99.90;;;15.33;92.84;100333.56;5056422;28;20257;-74
2023/08/04 05:14:42;;;;;;;10.40;3.83;;;15.80;99.90;;;15.36;93.11;100336.69;5056404;28;20268;-74
2023/08/04 05:17:14;;;;;;;14.13;4.50;;;15.80;99.90;;;15.33;92.56;100342.50;5056000;28;20225;-74
2023/08/04 05:19:46;;;;;;;11.50;4.87;;;15.80;99.90;;;15.36;92.92;100343.97;5056269;28;20190;-74
2023/08/04 05:22:18;;;;;;;11.77;4.20;;;15.80;99.90;;;15.38;92.38;100350.81;5056411;28;20230;-74
2023/08/04 05:24:50;;;;;;;11.90;4.17;;;15.80;99.90;;;15.39;92.87;100348.94;5056105;28;20559;-74
2023/08/04 05:27:37;;;;;;;8.40;3.93;;;15.90;99.90;;;15.43;92.44;100356.44;5055766;28;20190;-74
2023/08/04 05:30:11;;;;;;;15.30;4.53;;;15.90;99.90;;;15.41;93.06;100350.41;5056170;28;20198;-74
2023/08/04 05:32:43;;;;;;;18.57;4.83;;;15.90;99.90;;;15.37;92.68;100359.13;5056198;28;20308;-74
2023/08/04 05:35:16;;;;;;;13.50;4.43;;;15.80;99.90;;;15.39;92.11;100352.47;5055878;28;20675;-75
2023/08/04 05:37:48;;;;;;;13.40;4.03;;;15.90;99.90;;;15.43;92.06;100359.16;5055543;28;20520;-74
2023/08/04 05:40:20;;;;;;;12.73;3.93;;;15.90;99.90;;;15.44;92.48;100363.53;5056159;28;20198;-74
2023/08/04 05:42:53;;;;;;;11.00;3.93;;;15.90;99.90;;;15.41;91.85;100366.59;5055485;28;20316;-74
2023/08/04 05:45:25;;;;;;;11.27;4.00;;;15.90;99.90;;;15.43;91.63;100361.00;5055761;28;20309;-74
2023/08/04 05:47:57;;;;;;;13.37;4.00;;;15.90;99.90;;;15.44;90.99;100366.22;5056070;28;20221;-74
2023/08/04 05:50:29;;;;;;;11.60;4.47;;;15.90;99.90;;;15.43;90.83;100369.94;5057200;28;20194;-75
2023/08/04 05:53:01;;;;;;;12.93;4.33;;;15.90;99.90;;;15.46;91.83;100368.69;5072881;28;20238;-74
2023/08/04 05:55:34;;;;;;;12.97;4.67;;;15.90;99.90;;;15.49;90.99;100366.47;5078700;28;20171;-73
2023/08/04 05:58:08;;;;;;;10.23;3.70;;;16.00;99.90;;;15.46;90.93;100374.94;5077130;28;20647;-74
2023/08/04 06:00:40;;;;;;;9.53;3.90;;;16.00;99.90;;;15.48;91.14;100378.28;5076693;28;20221;-74
2023/08/04 06:03:11;;;;;;;11.80;3.90;;;16.00;99.90;;;15.49;90.92;100379.94;5076706;28;20230;-74
2023/08/04 06:05:43;;;;;;;9.40;3.90;;;16.00;99.90;;;15.50;90.84;100391.56;5076371;28;20214;-74
2023/08/04 06:08:15;;;;;;;17.63;4.20;;;15.90;99.90;;;15.50;90.06;100394.28;5057260;28;20190;-74
2023/08/04 06:10:47;;;;;;;12.00;4.17;;;16.00;99.90;;;15.51;90.38;100396.78;5055305;28;20194;-74
2023/08/04 06:13:21;;;;;;;10.13;3.50;;;16.00;99.90;;;15.49;90.36;100400.69;5055217;28;20254;-74
2023/08/04 06:15:53;;;;;;;11.97;3.87;;;15.90;99.90;;;15.49;89.77;100400.69;5054865;28;20618;-74
2023/08/04 06:18:25;;;;;;;8.77;3.73;;;16.00;99.90;;;15.47;90.29;100398.19;5055142;28;20264;-74
2023/08/04 06:20:57;;;;;;;8.67;4.00;;;15.90;99.90;;;15.51;89.80;100401.34;5055062;28;20195;-74
2023/08/04 06:23:29;;;;;;;7.50;3.70;;;16.00;99.90;;;15.51;90.13;100399.50;5055184;28;20287;-74
2023/08/04 06:26:00;;;;;;;10.23;3.97;;;16.00;99.90;;;15.53;90.12;100392.00;5054665;28;20745;-74
2023/08/04 06:28:34;;;;;;;9.80;3.87;;;16.00;99.90;;;15.57;89.74;100397.84;5054663;28;20236;-74
2023/08/04 06:31:06;;;;;;;11.00;4.37;;;16.00;99.90;;;15.61;90.58;100405.34;5055144;28;20201;-74
2023/08/04 06:33:38;;;;;;;11.63;3.80;;;16.10;99.90;;;15.64;89.25;100396.84;5054809;28;20280;-74
2023/08/04 06:36:10;;;;;;;13.43;4.20;;;16.10;99.90;;;15.67;88.89;100398.31;5054566;28;20647;-74
2023/08/04 06:38:42;;;;;;;10.80;3.90;;;16.20;99.90;;;15.72;89.24;100401.22;5054773;28;20281;-74
2023/08/04 06:41:14;;;;;;;13.07;4.27;;;16.20;99.90;;;15.75;89.16;100405.41;5054751;28;20281;-74
2023/08/04 06:43:47;;;;;;;10.77;4.33;;;16.20;99.90;;;15.76;89.12;100402.47;5054867;28;20236;-74
2023/08/04 06:46:18;;;;;;;9.83;3.60;;;16.20;99.90;;;15.82;88.98;100406.25;5054632;28;20225;-74
2023/08/04 06:48:50;;;;;;;8.67;3.47;;;16.30;99.90;;;15.83;88.50;100402.50;5054581;28;20281;-74
2023/08/04 06:51:23;;;;;;;12.43;3.63;;;16.30;99.90;;;15.86;88.11;100407.50;5054617;28;20281;-74
2023/08/04 06:53:55;;;;;;;8.50;3.30;;;16.30;99.90;;;15.89;88.24;100407.09;5054101;28;20320;-74
2023/08/04 06:56:27;;;;;;;8.73;3.60;;;16.40;99.90;;;15.93;88.46;100409.19;5054556;28;20280;-74
2023/08/04 06:59:01;;;;;;;7.13;3.20;;;16.40;99.90;;;15.99;88.14;100412.97;5054197;28;20244;-75
2023/08/04 07:01:33;;;;;;;7.97;3.10;;;16.50;99.90;;;16.01;88.74;100416.28;5054460;28;20289;-73
2023/08/04 07:04:05;;;;;;;6.87;3.20;;;16.50;99.90;;;16.01;86.92;100416.28;5054158;28;20226;-75
2023/08/04 07:06:37;;;;;;;8.23;3.27;;;16.50;99.90;;;16.01;86.84;100421.66;5054272;28;20297;-75
2023/08/04 07:09:09;;;;;;;7.67;3.27;;;16.50;99.90;;;16.07;87.97;100426.25;5054231;28;20281;-75
2023/08/04 07:11:42;;;;;;;10.80;3.50;;;16.50;99.90;;;16.08;87.21;100426.06;5054219;28;20214;-75
2023/08/04 07:14:15;;;;;;;7.67;3.10;;;16.60;99.90;;;16.11;87.19;100432.91;5054102;28;20222;-75
2023/08/04 07:16:47;;;;;;;8.10;3.37;;;16.60;99.90;;;16.13;87.08;100428.97;5054084;28;20190;-74
2023/08/04 07:19:19;;;;;;;6.50;3.07;;;16.60;99.90;;;16.16;88.14;100441.25;5054058;28;20198;-74
2023/08/04 07:21:51;;;;;;;12.10;3.50;;;16.70;99.90;;;16.17;87.10;100449.13;5053916;28;20281;-74
2023/08/04 07:24:23;;;;;;;9.63;3.27;;;16.70;99.90;;;16.16;86.39;100446.66;5053845;28;20285;-75
2023/08/04 07:26:57;;;;;;;8.37;3.40;;;16.60;99.90;;;16.15;85.95;100455.78;5053614;28;20700;-75
2023/08/04 07:29:33;;;;;;;9.43;2.93;;;16.70;99.90;;;16.18;86.40;100463.47;5054002;28;20229;-75
2023/08/04 07:32:07;;;;;;;7.47;3.17;;;16.70;99.90;;;16.17;86.25;100467.22;5053775;28;20299;-75
2023/08/04 07:34:38;;;;;;;8.30;3.20;;;16.60;99.90;;;16.19;85.91;100463.28;5053800;28;20221;-75
2023/08/04 07:37:10;;;;;;;9.23;3.00;;;16.70;99.90;;;16.19;86.13;100470.56;5053737;28;20190;-75
2023/08/04 07:39:42;;;;;;;7.47;3.20;;;16.70;99.90;;;16.20;85.26;100470.34;5053695;28;20637;-76
2023/08/04 07:42:14;;;;;;;8.93;2.90;;;16.70;99.90;;;16.23;85.34;100463.72;5053295;28;20281;-74
2023/08/04 07:44:47;;;;;;;6.20;3.17;;;16.70;99.90;;;16.27;86.95;100473.06;5053556;28;20245;-74
2023/08/04 07:47:19;;;;;;;7.23;3.00;;;16.70;99.90;;;16.28;86.61;100472.03;5053608;28;20272;-74
2023/08/04 07:49:51;;;;;;;8.40;3.00;;;16.80;99.90;;;16.29;86.52;100472.88;5053276;28;20641;-74
2023/08/04 07:52:23;;;;;;;7.43;3.63;;;16.80;99.90;;;16.33;85.70;100480.38;5053033;28;20731;-69
2023/08/04 07:54:55;;;;;;;9.23;3.27;;;16.80;99.90;;;16.35;84.78;100480.97;5053447;28;20256;-68
2023/08/04 07:57:27;;;;;;;9.03;3.07;;;16.80;99.90;;;16.40;85.85;100480.38;5053033;28;20717;-66
2023/08/04 08:00:00;;;;;;;6.77;3.00;;;16.90;99.90;;;16.42;85.66;100481.84;5053286;28;20194;-73
2023/08/04 08:02:32;;;;;;;5.30;2.80;;;16.90;99.90;;;16.42;83.64;100483.69;5052920;28;20574;-74
2023/08/04 08:05:04;;;;;;;4.33;2.90;;;17.80;99.90;;;16.45;84.13;100489.53;5053177;28;20241;-74
2023/08/04 08:07:36;;;;;;;7.07;2.73;;;16.90;99.90;;;16.47;84.70;100487.44;5052551;28;20217;-74
2023/08/04 08:10:18;;;;;;;8.07;2.77;;;17.00;99.90;;;16.53;84.82;100494.75;5053001;28;20201;-75
2023/08/04 08:12:50;;;;;;;7.30;2.93;;;17.00;99.90;;;16.56;83.90;100488.97;5053250;28;20317;-74
2023/08/04 08:15:23;;;;;;;4.87;2.80;;;17.10;99.90;;;16.59;82.67;100496.66;5053472;28;20187;-74
2023/08/04 08:17:55;;;;;;;8.03;3.13;;;17.10;99.90;;;16.66;82.89;100499.38;5053050;28;20221;-75
2023/08/04 08:20:27;;;;;;;6.90;2.70;;;17.20;99.90;;;16.67;83.27;100501.88;5053232;28;20195;-74
2023/08/04 08:22:59;;;;;;;6.70;2.77;;;17.20;99.90;;;16.73;82.27;100498.34;5053135;28;20225;-74
2023/08/04 08:25:32;;;;;;;8.27;3.53;;;17.20;99.90;;;16.78;83.29;100499.63;5053131;28;20245;-74
2023/08/04 08:28:04;;;;;;;9.67;2.90;;;17.30;99.90;;;16.85;85.93;100505.88;5053183;28;20586;-74
2023/08/04 08:30:38;;;;;;;7.50;2.70;;;17.40;99.90;;;16.87;82.71;100510.00;5052815;28;20631;-74
2023/08/04 08:33:09;;;;;;;9.00;2.60;;;17.30;99.90;;;16.89;81.68;100513.34;5053028;28;20299;-74
2023/08/04 08:35:41;;;;;;;8.27;3.23;;;17.40;99.90;;;16.90;81.01;100509.59;5053096;28;20664;-74
2023/08/04 08:38:14;;;;;;;8.17;2.70;;;17.40;99.90;;;16.98;79.96;100505.88;5053101;28;20252;-75
2023/08/04 08:40:49;;;;;;;4.30;2.43;;;17.50;99.90;;;17.03;80.20;100522.28;5053009;28;20277;-75
2023/08/04 08:43:19;;;;;;;7.53;2.70;;;17.50;99.90;;;17.07;79.81;100520.84;5052983;28;20316;-74
2023/08/04 08:45:54;;;;;;;8.10;2.70;;;17.60;99.90;;;17.16;80.93;100525.00;5052619;28;20233;-74
2023/08/04 08:48:28;;;;;;;5.03;2.40;;;17.60;99.90;;;17.17;80.34;100529.38;5052880;28;20635;-75
2023/08/04 08:51:08;;;;;;;6.13;2.83;;;17.70;99.90;;;17.25;80.46;100529.16;5052983;28;20281;-75
2023/08/04 08:53:44;;;;;;;7.07;2.33;;;17.80;99.90;;;17.29;79.19;100525.00;5055794;28;20324;-75
2023/08/04 08:56:16;;;;;;;5.90;2.60;;;17.80;99.90;;;17.35;79.06;100529.56;5052975;28;20281;-74
2023/08/04 08:58:48;;;;;;;6.13;2.33;;;17.90;99.90;;;17.40;77.76;100532.47;5052795;28;20267;-74
2023/08/04 09:01:22;;;;;;;7.03;2.77;;;17.90;99.90;;;17.45;78.32;100537.25;5053117;28;20285;-74
2023/08/04 09:03:55;;;;;;;6.17;2.20;;;17.90;99.90;;;17.51;75.33;100539.13;5052741;28;20316;-74
2023/08/04 09:06:27;;;;;;;6.60;2.20;;;18.00;99.90;;;17.50;73.09;100535.59;5052696;28;20297;-74
2023/08/04 09:09:01;;;;;;;3.13;2.03;;;18.00;99.90;;;17.56;74.94;100544.78;5052430;28;20641;-74
2023/08/04 09:11:33;;;;;;;8.20;2.30;;;18.00;99.90;;;17.52;74.36;100547.06;5052407;28;20648;-74
2023/08/04 09:14:06;;;;;;;7.80;2.20;;;18.00;99.90;;;17.50;75.06;100538.28;5055967;28;20269;-74
2023/08/04 09:16:41;;;;;;;4.37;2.37;;;18.00;99.90;;;17.48;75.50;100537.69;5056310;28;20190;-75
2023/08/04 09:19:14;;;;;;;6.37;2.57;;;17.90;99.90;;;17.46;76.61;100537.06;5056292;28;20609;-75
2023/08/04 09:21:46;;;;;;;6.10;2.20;;;17.90;99.90;;;17.46;76.72;100544.34;5056134;28;20194;-75
2023/08/04 09:24:20;;;;;;;8.20;2.57;;;17.90;99.90;;;17.48;76.58;100537.69;5056134;28;20208;-75
2023/08/04 09:26:52;;;;;;;4.53;2.20;;;17.90;99.90;;;17.52;76.84;100540.81;5056078;28;20225;-75
2023/08/04 09:29:25;;;;;;;4.83;2.20;;;18.00;99.90;;;17.56;77.06;100545.63;5056061;28;20226;-75
2023/08/04 09:31:58;;;;;;;5.67;2.20;;;18.10;99.90;;;17.64;76.11;100553.50;5055738;28;20750;-75
2023/08/04 09:34:30;;;;;;;4.00;2.17;;;18.10;99.90;;;17.69;73.77;100545.59;5055882;28;20190;-74
2023/08/04 09:37:02;;;;;;;3.63;2.07;;;18.20;99.90;;;17.77;74.44;100554.53;5055974;28;20186;-75
2023/08/04 09:39:33;;;;;;;4.33;1.90;;;18.30;99.90;;;17.82;75.53;100547.44;5055894;28;20277;-75
2023/08/04 09:42:07;;;;;;;3.67;2.20;;;18.30;99.90;;;17.91;73.89;100542.63;5055527;28;20746;-75
2023/08/04 09:44:39;;;;;;;4.10;2.10;;;18.40;99.90;;;18.03;72.66;100547.19;5055842;28;20193;-75
2023/08/04 09:47:15;;;;;;;5.63;1.97;;;18.60;99.90;;;18.14;71.43;100545.69;5055407;28;20741;-75
2023/08/04 09:49:47;;;;;;;4.57;2.00;;;18.60;99.90;;;18.23;73.58;100545.22;5055400;28;20233;-75
2023/08/04 09:52:23;;;;;;;3.60;2.07;;;18.70;99.90;;;18.27;71.67;100551.03;5056034;28;20327;-75
2023/08/04 09:54:58;;;;;;;3.07;1.90;;;18.70;99.90;;;18.33;69.60;100544.75;5055587;28;20632;-75
2023/08/04 09:57:31;;;;;;;4.33;2.20;;;18.80;99.90;;;18.44;69.86;100541.38;5055517;28;20619;-75
2023/08/04 10:00:04;;;;;;;5.07;2.23;;;18.90;99.90;;;18.45;70.73;100548.47;5055147;28;20190;-75
2023/08/04 10:02:37;;;;;;;2.53;2.03;;;18.90;99.90;;;18.44;70.85;100552.22;5055337;28;20254;-74
2023/08/04 10:05:10;;;;;;;4.70;2.30;;;18.90;99.90;;;18.45;74.17;100553.91;5055358;28;20191;-74
2023/08/04 10:07:45;;;;;;;3.47;2.20;;;18.90;99.90;;;18.46;70.87;100547.41;5055293;28;20210;-74
2023/08/04 10:10:17;;;;;;;3.33;2.03;;;19.00;99.90;;;18.47;70.00;100554.50;5055055;28;20198;-74
2023/08/04 10:12:49;;;;;;;4.17;2.53;;;19.00;99.90;;;18.48;69.72;100550.75;5055193;28;20314;-75
2023/08/04 10:15:21;;;;;;;5.87;2.03;;;18.90;99.90;;;18.46;69.28;100555.53;5055277;28;20274;-76
2023/08/04 10:17:57;;;;;;;3.13;1.70;;;19.00;99.90;;;18.53;70.19;100555.53;5055199;28;20594;-76
2023/08/04 10:20:33;;;;;;;5.00;2.10;;;19.00;99.90;;;18.54;69.61;100552.63;5055411;28;20198;-76
2023/08/04 10:23:05;;;;;;;6.03;2.10;;;19.00;99.90;;;18.56;69.53;100555.13;5054191;28;20312;-76
2023/08/04 10:25:37;;;;;;;5.93;2.40;;;19.10;99.90;;;18.57;70.48;100557.59;5054649;28;20191;-75
2023/08/04 10:28:11;;;;;;;3.77;2.00;;;19.00;99.90;;;18.58;68.98;100559.28;5054788;28;20276;-75
2023/08/04 10:30:45;;;;;;;6.40;2.37;;;19.00;99.90;;;18.69;70.24;100553.16;5054827;28;20277;-75
2023/08/04 10:33:25;;;;;;;5.30;2.67;;;19.10;99.90;;;18.79;70.58;100560.81;5054716;28;20226;-75